createdAt,value
2023-04-22T00:00:50.136Z,60.54
2023-04-22T00:03:22.130Z,60.75
2023-04-22T00:05:52.979Z,60.66
2023-04-22T00:08:23.412Z,60.70
2023-04-22T00:10:53.819Z,60.74
2023-04-22T00:13:24.458Z,60.89
2023-04-22T00:15:55.612Z,60.97
2023-04-22T00:18:26.451Z,61.07
2023-04-22T00:20:57.070Z,61.18
2023-04-22T00:23:27.433Z,61.35
2023-04-22T00:25:57.882Z,61.46
2023-04-22T00:28:28.335Z,61.66
2023-04-22T00:30:58.891Z,61.74
2023-04-22T00:33:29.397Z,61.91
2023-04-22T00:35:59.787Z,62.15
2023-04-22T00:38:31.810Z,62.31
2023-04-22T00:41:02.405Z,62.47
2023-04-22T00:43:33.122Z,62.61
2023-04-22T00:46:05.014Z,62.70
2023-04-22T00:48:36.422Z,62.90
2023-04-22T00:51:07.247Z,63.08
2023-04-22T00:53:37.651Z,63.23
2023-04-22T00:56:08.657Z,63.33
2023-04-22T00:58:39.056Z,63.42
2023-04-22T01:01:09.999Z,63.47
2023-04-22T01:03:41.559Z,63.61
2023-04-22T01:06:12.365Z,63.65
2023-04-22T01:08:43.366Z,63.73
2023-04-22T01:11:14.610Z,63.53
2023-04-22T01:13:45.262Z,63.71
2023-04-22T01:16:16.021Z,63.73
2023-04-22T01:18:46.646Z,63.67
2023-04-22T01:21:17.093Z,63.68
2023-04-22T01:23:48.279Z,63.64
2023-04-22T01:26:18.658Z,63.76
2023-04-22T01:28:49.264Z,63.69
2023-04-22T01:31:19.879Z,63.85
2023-04-22T01:33:51.146Z,64.02
2023-04-22T01:36:21.841Z,64.14
2023-04-22T01:38:52.572Z,64.06
2023-04-22T01:41:23.360Z,64.35
2023-04-22T01:43:54.652Z,64.21
2023-04-22T01:46:25.451Z,64.34
2023-04-22T01:48:56.137Z,64.43
2023-04-22T01:51:26.561Z,64.55
2023-04-22T01:53:57.269Z,64.58
2023-04-22T01:56:28.060Z,64.87
2023-04-22T01:58:58.431Z,64.86
2023-04-22T02:01:29.218Z,64.66
2023-04-22T02:03:59.634Z,64.81
2023-04-22T02:06:31.602Z,64.89
2023-04-22T02:09:02.207Z,65.01
2023-04-22T02:11:32.751Z,65.38
2023-04-22T02:14:03.412Z,65.42
2023-04-22T02:16:33.939Z,65.54
2023-04-22T02:19:04.539Z,65.56
2023-04-22T02:21:35.198Z,65.59
2023-04-22T02:24:05.824Z,65.78
2023-04-22T02:26:36.250Z,65.65
2023-04-22T02:29:06.836Z,65.62
2023-04-22T02:31:37.253Z,65.59
2023-04-22T02:34:08.266Z,65.68
2023-04-22T02:36:38.947Z,65.67
2023-04-22T02:39:09.318Z,65.78
2023-04-22T02:41:40.212Z,65.91
2023-04-22T02:44:10.818Z,65.91
2023-04-22T02:46:41.236Z,65.88
2023-04-22T02:49:11.609Z,65.97
2023-04-22T02:51:41.998Z,65.86
2023-04-22T02:54:12.379Z,65.92
2023-04-22T02:56:42.682Z,65.96
2023-04-22T02:59:13.007Z,65.93
2023-04-22T03:01:43.619Z,65.84
2023-04-22T03:04:15.387Z,66.01
2023-04-22T03:06:46.201Z,66.12
2023-04-22T03:09:17.025Z,66.15
2023-04-22T03:11:47.421Z,66.20
2023-04-22T03:14:17.970Z,66.19
2023-04-22T03:16:48.404Z,66.25
2023-04-22T03:19:18.876Z,66.46
2023-04-22T03:21:49.233Z,66.43
2023-04-22T03:24:19.836Z,66.57
2023-04-22T03:26:50.422Z,66.53
2023-04-22T03:29:20.743Z,66.84
2023-04-22T03:31:51.333Z,66.94
2023-04-22T03:34:21.996Z,67.13
2023-04-22T03:36:52.840Z,67.24
2023-04-22T03:39:23.156Z,67.31
2023-04-22T03:41:53.710Z,67.22
2023-04-22T03:44:24.510Z,66.98
2023-04-22T03:46:55.056Z,66.85
2023-04-22T03:49:26.162Z,66.63
2023-04-22T03:51:56.776Z,66.55
2023-04-22T03:54:27.470Z,66.71
2023-04-22T03:56:58.352Z,66.74
2023-04-22T03:59:28.922Z,66.66
2023-04-22T04:01:59.731Z,66.76
2023-04-22T04:04:30.697Z,66.82
2023-04-22T04:07:01.665Z,66.90
2023-04-22T04:09:32.270Z,66.92
2023-04-22T04:12:02.921Z,66.92
2023-04-22T04:14:33.499Z,67.16
2023-04-22T04:17:04.572Z,67.32
2023-04-22T04:19:34.827Z,67.35
2023-04-22T04:22:05.470Z,67.56
2023-04-22T04:24:37.060Z,67.77
2023-04-22T04:27:07.599Z,67.78
2023-04-22T04:29:38.089Z,67.77
2023-04-22T04:32:09.729Z,67.95
2023-04-22T04:34:40.381Z,68.01
2023-04-22T04:37:11.537Z,68.10
2023-04-22T04:39:43.447Z,68.20
2023-04-22T04:42:14.381Z,68.11
2023-04-22T04:44:44.652Z,68.24
2023-04-22T04:47:15.060Z,68.46
2023-04-22T04:49:46.189Z,68.67
2023-04-22T04:52:16.544Z,68.75
2023-04-22T04:54:46.872Z,68.86
2023-04-22T04:57:17.657Z,69.04
2023-04-22T04:59:48.176Z,69.13
2023-04-22T05:02:18.697Z,69.11
2023-04-22T05:04:49.666Z,69.15
2023-04-22T05:07:20.376Z,69.23
2023-04-22T05:09:50.911Z,69.19
2023-04-22T05:12:21.461Z,69.25
2023-04-22T05:14:51.752Z,69.16
2023-04-22T05:17:22.587Z,69.34
2023-04-22T05:19:53.217Z,69.42
2023-04-22T05:22:23.864Z,69.30
2023-04-22T05:24:54.234Z,69.43
2023-04-22T05:27:25.015Z,69.34
2023-04-22T05:29:55.314Z,69.50
2023-04-22T05:32:25.799Z,69.52
2023-04-22T05:34:56.222Z,69.38
2023-04-22T05:37:26.537Z,69.43
2023-04-22T05:39:56.937Z,69.29
2023-04-22T05:42:27.256Z,69.41
2023-04-22T05:44:57.609Z,69.36
2023-04-22T05:47:28.165Z,69.31
2023-04-22T05:49:58.874Z,69.21
2023-04-22T05:52:29.430Z,69.13
2023-04-22T05:54:59.774Z,68.99
2023-04-22T05:57:30.156Z,69.06
2023-04-22T06:00:01.840Z,69.14
2023-04-22T06:02:32.635Z,69.12
2023-04-22T06:05:04.348Z,68.98
2023-04-22T06:07:35.179Z,69.03
2023-04-22T06:10:06.148Z,69.00
2023-04-22T06:12:37.115Z,69.01
2023-04-22T06:15:09.195Z,69.22
2023-04-22T06:17:39.586Z,69.24
2023-04-22T06:20:11.858Z,68.74
2023-04-22T06:22:42.134Z,68.58
2023-04-22T06:25:13.103Z,68.60
2023-04-22T06:27:43.414Z,68.53
2023-04-22T06:30:14.404Z,68.42
2023-04-22T06:32:45.046Z,68.40
2023-04-22T06:35:15.526Z,68.19
2023-04-22T06:37:45.886Z,68.03
2023-04-22T06:40:16.793Z,67.91
2023-04-22T06:42:47.105Z,67.93
2023-04-22T06:45:17.961Z,67.83
2023-04-22T06:47:48.368Z,67.59
2023-04-22T06:50:18.943Z,67.59
2023-04-22T06:52:49.286Z,67.29
2023-04-22T06:55:20.134Z,67.23
2023-04-22T06:57:51.020Z,67.20
2023-04-22T07:00:21.539Z,67.34
2023-04-22T07:02:51.974Z,67.07
2023-04-22T07:05:22.329Z,67.15
2023-04-22T07:07:52.873Z,67.14
2023-04-22T07:10:23.612Z,66.93
2023-04-22T07:12:54.211Z,66.79
2023-04-22T07:15:24.599Z,66.67
2023-04-22T07:17:55.622Z,66.53
2023-04-22T07:20:26.279Z,66.66
2023-04-22T07:22:56.685Z,66.53
2023-04-22T07:25:27.027Z,66.55
2023-04-22T07:27:57.444Z,66.62
2023-04-22T07:30:27.920Z,66.39
2023-04-22T07:32:58.228Z,66.48
2023-04-22T07:35:29.764Z,66.47
2023-04-22T07:38:00.808Z,66.29
2023-04-22T07:40:31.136Z,66.05
2023-04-22T07:43:01.461Z,65.84
2023-04-22T07:45:32.030Z,66.12
2023-04-22T07:48:02.535Z,66.02
2023-04-22T07:50:33.450Z,66.16
2023-04-22T07:53:03.871Z,65.67
2023-04-22T07:55:34.696Z,65.39
2023-04-22T07:58:06.630Z,65.17
2023-04-22T08:00:38.303Z,65.55
2023-04-22T08:03:09.589Z,65.81
2023-04-22T08:05:40.512Z,65.89
2023-04-22T08:08:10.906Z,65.72
2023-04-22T08:10:41.551Z,65.22
2023-04-22T08:13:12.122Z,65.28
2023-04-22T08:15:42.575Z,64.61
2023-04-22T08:18:12.915Z,64.41
2023-04-22T08:20:43.230Z,64.21
2023-04-22T08:23:13.633Z,64.54
2023-04-22T08:25:44.476Z,64.26
2023-04-22T08:28:15.445Z,64.12
2023-04-22T08:30:45.855Z,63.66
2023-04-22T08:33:16.561Z,63.67
2023-04-22T08:35:47.132Z,63.21
2023-04-22T08:38:17.746Z,62.60
2023-04-22T08:40:48.812Z,61.74
2023-04-22T08:43:19.166Z,62.27
2023-04-22T08:45:50.610Z,61.93
2023-04-22T08:48:21.242Z,61.90
2023-04-22T08:50:53.370Z,62.26
2023-04-22T08:53:24.987Z,62.00
2023-04-22T08:55:58.557Z,61.30
2023-04-22T08:58:31.047Z,60.91
2023-04-22T09:01:04.502Z,60.93
2023-04-22T09:03:35.496Z,60.63
2023-04-22T09:06:07.834Z,60.82
2023-04-22T09:08:39.903Z,60.51
2023-04-22T09:11:11.310Z,60.20
2023-04-22T09:13:43.176Z,59.07
2023-04-22T09:16:14.063Z,59.12
2023-04-22T09:18:45.997Z,59.62
2023-04-22T09:21:16.742Z,58.64
2023-04-22T09:23:52.423Z,58.54
2023-04-22T09:26:24.303Z,58.81
2023-04-22T09:28:58.264Z,58.81
2023-04-22T09:31:29.569Z,58.64
2023-04-22T09:34:01.681Z,59.03
2023-04-22T09:36:34.073Z,58.95
2023-04-22T09:39:06.680Z,58.89
2023-04-22T09:41:38.749Z,58.62
2023-04-22T09:44:14.946Z,58.33
2023-04-22T09:46:46.197Z,58.02
2023-04-22T09:49:18.489Z,57.87
2023-04-22T09:51:49.912Z,57.86
2023-04-22T09:54:20.396Z,57.46
2023-04-22T09:56:52.077Z,57.35
2023-04-22T09:59:28.045Z,57.89
2023-04-22T10:02:03.487Z,57.79
2023-04-22T10:04:34.622Z,57.64
2023-04-22T10:07:05.208Z,57.16
2023-04-22T10:09:35.752Z,57.34
2023-04-22T10:12:07.803Z,57.20
2023-04-22T10:14:38.986Z,57.78
2023-04-22T10:17:13.274Z,57.14
2023-04-22T10:19:47.009Z,57.59
2023-04-22T10:22:18.246Z,57.77
2023-04-22T10:24:55.217Z,57.55
2023-04-22T10:27:26.129Z,57.58
2023-04-22T10:29:58.669Z,57.89
2023-04-22T10:32:30.924Z,58.09
2023-04-22T10:35:16.320Z,57.91
2023-04-22T10:37:49.359Z,57.47
2023-04-22T10:40:22.718Z,56.55
2023-04-22T10:42:55.838Z,56.51
2023-04-22T10:45:28.218Z,56.29
2023-04-22T10:48:03.606Z,56.81
2023-04-22T10:50:34.997Z,57.40
2023-04-22T10:53:40.562Z,57.02
2023-04-22T10:56:19.799Z,56.93
2023-04-22T10:58:51.796Z,56.37
2023-04-22T11:01:22.161Z,56.81
2023-04-22T11:03:53.404Z,57.41
2023-04-22T11:06:27.695Z,57.69
2023-04-22T11:09:12.773Z,57.70
2023-04-22T11:11:43.154Z,57.25
2023-04-22T11:14:13.675Z,56.72
2023-04-22T11:16:48.835Z,56.45
2023-04-22T11:19:19.196Z,56.66
2023-04-22T11:21:51.254Z,57.26
2023-04-22T11:24:22.036Z,57.35
2023-04-22T11:26:56.773Z,56.50
2023-04-22T11:29:28.602Z,56.31
2023-04-22T11:31:59.678Z,56.12
2023-04-22T11:34:30.368Z,56.15
2023-04-22T11:37:01.958Z,56.14
2023-04-22T11:39:46.504Z,56.60
2023-04-22T11:42:26.762Z,55.18
2023-04-22T11:44:57.322Z,55.22
2023-04-22T11:47:29.886Z,54.52
2023-04-22T11:50:02.055Z,54.62
2023-04-22T11:52:50.211Z,55.16
2023-04-22T11:55:23.748Z,55.33
2023-04-22T11:57:59.074Z,54.14
2023-04-22T12:00:34.829Z,53.33
2023-04-22T12:03:07.920Z,53.06
2023-04-22T12:05:43.482Z,52.59
2023-04-22T12:08:16.115Z,52.67
2023-04-22T12:10:48.251Z,52.42
2023-04-22T12:13:23.493Z,52.01
2023-04-22T12:15:57.397Z,50.95
2023-04-22T12:18:34.596Z,50.80
2023-04-22T12:21:11.778Z,51.11
2023-04-22T12:23:46.398Z,51.18
2023-04-22T12:26:17.854Z,50.04
2023-04-22T12:28:49.702Z,48.09
2023-04-22T12:31:20.256Z,47.34
2023-04-22T12:33:50.947Z,46.96
2023-04-22T12:36:21.772Z,45.68
2023-04-22T12:38:52.260Z,43.86
2023-04-22T12:41:23.541Z,43.42
2023-04-22T12:43:55.211Z,42.85
2023-04-22T12:46:26.016Z,42.49
2023-04-22T12:48:56.437Z,41.55
2023-04-22T12:51:27.140Z,42.51
2023-04-22T12:53:58.220Z,42.13
2023-04-22T12:56:29.116Z,41.53
2023-04-22T12:59:03.146Z,42.15
2023-04-22T13:01:35.337Z,42.65
2023-04-22T13:04:06.655Z,42.78
2023-04-22T13:06:37.500Z,42.81
2023-04-22T13:09:08.221Z,43.12
2023-04-22T13:11:38.843Z,42.46
2023-04-22T13:14:09.179Z,42.46
2023-04-22T13:16:39.921Z,42.68
2023-04-22T13:19:10.642Z,42.32
2023-04-22T13:21:41.497Z,42.52
2023-04-22T13:24:12.313Z,42.38
2023-04-22T13:26:42.673Z,42.72
2023-04-22T13:29:14.141Z,42.38
2023-04-22T13:31:46.232Z,42.62
2023-04-22T13:34:16.850Z,42.52
2023-04-22T13:36:47.599Z,42.66
2023-04-22T13:39:17.974Z,43.08
2023-04-22T13:41:48.688Z,43.08
2023-04-22T13:44:19.006Z,43.34
2023-04-22T13:46:49.512Z,43.74
2023-04-22T13:49:19.883Z,43.67
2023-04-22T13:51:50.909Z,43.76
2023-04-22T13:54:21.415Z,43.96
2023-04-22T13:56:51.828Z,44.20
2023-04-22T13:59:22.517Z,44.45
2023-04-22T14:01:52.818Z,44.21
2023-04-22T14:04:23.422Z,43.73
2023-04-22T14:06:54.224Z,43.62
2023-04-22T14:09:24.659Z,44.16
2023-04-22T14:11:55.423Z,44.24
2023-04-22T14:14:25.922Z,44.39
2023-04-22T14:16:56.757Z,44.21
2023-04-22T14:19:30.180Z,44.60
2023-04-22T14:22:00.888Z,44.48
2023-04-22T14:24:31.901Z,44.23
2023-04-22T14:27:02.589Z,44.27
2023-04-22T14:29:33.081Z,44.08
2023-04-22T14:32:03.612Z,44.25
2023-04-22T14:34:34.124Z,43.61
2023-04-22T14:37:05.186Z,43.42
2023-04-22T14:39:36.027Z,42.66
2023-04-22T14:42:06.701Z,42.22
2023-04-22T14:44:37.327Z,42.17
2023-04-22T14:47:07.857Z,42.44
2023-04-22T14:49:38.500Z,43.08
2023-04-22T14:52:09.989Z,44.05
2023-04-22T14:54:40.355Z,44.70
2023-04-22T14:57:10.899Z,44.11
2023-04-22T14:59:41.585Z,44.60
2023-04-22T15:02:15.865Z,45.35
2023-04-22T15:04:46.972Z,46.31
2023-04-22T15:07:17.336Z,45.89
2023-04-22T15:09:47.681Z,45.90
2023-04-22T15:12:18.066Z,45.73
2023-04-22T15:14:48.441Z,46.05
2023-04-22T15:17:19.280Z,45.33
2023-04-22T15:19:50.149Z,46.05
2023-04-22T15:22:20.692Z,46.19
2023-04-22T15:24:51.054Z,46.60
2023-04-22T15:27:21.521Z,46.51
2023-04-22T15:29:52.228Z,46.60
2023-04-22T15:32:23.149Z,46.51
2023-04-22T15:34:53.593Z,46.43
2023-04-22T15:37:24.034Z,46.63
2023-04-22T15:39:54.419Z,46.56
2023-04-22T15:42:24.791Z,46.41
2023-04-22T15:44:55.672Z,46.47
2023-04-22T15:47:28.256Z,46.72
2023-04-22T15:50:06.028Z,46.62
2023-04-22T15:52:37.440Z,46.81
2023-04-22T15:55:09.261Z,47.17
2023-04-22T15:57:40.312Z,47.03
2023-04-22T16:00:13.869Z,46.95
2023-04-22T16:02:46.400Z,47.08
2023-04-22T16:05:16.946Z,47.17
2023-04-22T16:07:47.385Z,47.31
2023-04-22T16:10:17.864Z,47.44
2023-04-22T16:12:48.410Z,47.98
2023-04-22T16:15:19.071Z,47.26
2023-04-22T16:17:49.514Z,46.55
2023-04-22T16:20:20.242Z,46.14
2023-04-22T16:22:53.558Z,45.66
2023-04-22T16:25:24.063Z,45.84
2023-04-22T16:27:54.581Z,46.17
2023-04-22T16:30:25.471Z,46.22
2023-04-22T16:32:55.941Z,45.78
2023-04-22T16:35:26.614Z,45.36
2023-04-22T16:37:57.530Z,45.36
2023-04-22T16:40:27.950Z,45.04
2023-04-22T16:43:02.794Z,44.74
2023-04-22T16:45:33.269Z,45.13
2023-04-22T16:48:03.589Z,45.62
2023-04-22T16:50:34.161Z,45.87
2023-04-22T16:53:04.718Z,45.76
2023-04-22T16:55:36.865Z,46.19
2023-04-22T16:58:07.773Z,46.35
2023-04-22T17:00:38.266Z,46.81
2023-04-22T17:03:09.004Z,46.88
2023-04-22T17:05:39.460Z,46.87
2023-04-22T17:08:10.149Z,46.94
2023-04-22T17:10:44.864Z,47.13
2023-04-22T17:13:16.082Z,47.34
2023-04-22T17:15:46.407Z,47.60
2023-04-22T17:18:16.713Z,48.25
2023-04-22T17:20:47.112Z,48.27
2023-04-22T17:23:18.305Z,48.28
2023-04-22T17:25:48.598Z,48.18
2023-04-22T17:28:19.232Z,48.42
2023-04-22T17:30:49.824Z,48.54
2023-04-22T17:33:20.667Z,48.69
2023-04-22T17:35:51.110Z,48.67
2023-04-22T17:38:21.716Z,48.79
2023-04-22T17:40:52.348Z,48.53
2023-04-22T17:43:23.094Z,48.76
2023-04-22T17:45:53.542Z,49.03
2023-04-22T17:48:24.580Z,49.12
2023-04-22T17:50:56.186Z,49.13
2023-04-22T17:53:26.952Z,49.30
2023-04-22T17:55:57.383Z,49.75
2023-04-22T17:58:28.025Z,49.77
2023-04-22T18:00:58.862Z,49.92
2023-04-22T18:03:29.545Z,50.01
2023-04-22T18:06:00.668Z,50.47
2023-04-22T18:08:31.338Z,50.70
2023-04-22T18:11:06.954Z,51.06
2023-04-22T18:13:37.972Z,51.15
2023-04-22T18:16:09.369Z,51.35
2023-04-22T18:18:39.991Z,51.61
2023-04-22T18:21:10.510Z,51.78
2023-04-22T18:23:41.315Z,52.00
2023-04-22T18:26:11.916Z,52.29
2023-04-22T18:28:44.358Z,52.36
2023-04-22T18:31:15.053Z,52.96
2023-04-22T18:33:45.442Z,53.22
2023-04-22T18:36:15.849Z,53.31
2023-04-22T18:38:46.226Z,53.32
2023-04-22T18:41:17.138Z,53.59
2023-04-22T18:43:48.409Z,53.63
2023-04-22T18:46:19.313Z,54.06
2023-04-22T18:48:49.687Z,53.92
2023-04-22T18:51:19.992Z,54.31
2023-04-22T18:53:50.722Z,54.42
2023-04-22T18:56:21.075Z,54.57
2023-04-22T18:58:51.717Z,54.50
2023-04-22T19:01:22.467Z,54.57
2023-04-22T19:03:52.957Z,54.58
2023-04-22T19:06:23.375Z,54.78
2023-04-22T19:08:53.691Z,54.88
2023-04-22T19:11:24.859Z,55.15
2023-04-22T19:13:55.574Z,55.33
2023-04-22T19:16:26.533Z,55.49
2023-04-22T19:18:57.324Z,55.04
2023-04-22T19:21:29.878Z,54.83
2023-04-22T19:24:01.575Z,55.08
2023-04-22T19:26:32.214Z,55.12
2023-04-22T19:29:03.178Z,55.05
2023-04-22T19:31:33.805Z,55.55
2023-04-22T19:34:04.159Z,55.80
2023-04-22T19:36:34.967Z,56.00
2023-04-22T19:39:06.741Z,55.74
2023-04-22T19:41:38.064Z,55.73
2023-04-22T19:44:08.390Z,55.68
2023-04-22T19:46:39.159Z,55.96
2023-04-22T19:49:10.718Z,56.26
2023-04-22T19:51:41.777Z,56.30
2023-04-22T19:54:13.741Z,56.61
2023-04-22T19:56:45.167Z,56.67
2023-04-22T19:59:15.804Z,56.92
2023-04-22T20:01:47.092Z,57.15
2023-04-22T20:04:18.685Z,57.20
2023-04-22T20:06:51.289Z,57.33
2023-04-22T20:09:22.527Z,57.65
2023-04-22T20:11:54.956Z,57.87
2023-04-22T20:14:26.867Z,58.06
2023-04-22T20:16:57.810Z,58.20
2023-04-22T20:19:30.397Z,58.85
2023-04-22T20:22:01.468Z,58.69
2023-04-22T20:24:36.828Z,59.23
2023-04-22T20:27:07.943Z,59.84
2023-04-22T20:29:39.031Z,60.13
2023-04-22T20:32:11.175Z,60.62
2023-04-22T20:34:42.372Z,60.91
2023-04-22T20:37:14.623Z,61.23
2023-04-22T20:39:46.082Z,61.81
2023-04-22T20:42:17.301Z,61.76
2023-04-22T20:44:47.894Z,62.14
2023-04-22T20:47:18.479Z,62.20
2023-04-22T20:49:48.887Z,61.81
2023-04-22T20:52:20.090Z,61.60
2023-04-22T20:54:54.966Z,62.26
2023-04-22T20:57:25.580Z,62.62
2023-04-22T20:59:56.162Z,62.85
2023-04-22T21:02:27.706Z,63.29
2023-04-22T21:05:00.211Z,63.38
2023-04-22T21:07:31.446Z,63.62
2023-04-22T21:10:02.576Z,63.66
2023-04-22T21:12:33.766Z,63.83
2023-04-22T21:15:06.227Z,63.89
2023-04-22T21:17:39.769Z,64.20
2023-04-22T21:20:12.388Z,64.19
2023-04-22T21:22:44.988Z,64.09
2023-04-22T21:25:23.100Z,64.19
2023-04-22T21:27:54.364Z,64.22
2023-04-22T21:30:26.160Z,64.45
2023-04-22T21:32:56.621Z,64.59
2023-04-22T21:35:27.033Z,64.76
2023-04-22T21:37:57.748Z,64.53
2023-04-22T21:40:28.527Z,64.14
2023-04-22T21:43:00.053Z,64.53
2023-04-22T21:45:30.805Z,65.36
2023-04-22T21:48:01.202Z,66.20
2023-04-22T21:50:32.210Z,66.53
2023-04-22T21:53:02.952Z,66.90
2023-04-22T21:55:33.262Z,67.22
2023-04-22T21:58:03.893Z,67.10
2023-04-22T22:00:34.490Z,67.23
2023-04-22T22:03:06.067Z,67.33
2023-04-22T22:05:37.014Z,67.60
2023-04-22T22:08:08.176Z,67.44
2023-04-22T22:10:38.574Z,67.49
2023-04-22T22:13:09.247Z,67.88
2023-04-22T22:15:39.601Z,68.07
2023-04-22T22:18:10.220Z,67.69
2023-04-22T22:20:40.830Z,67.48
2023-04-22T22:23:11.225Z,67.43
2023-04-22T22:25:42.302Z,67.30
2023-04-22T22:28:12.876Z,67.17
2023-04-22T22:30:43.452Z,66.90
2023-04-22T22:33:13.848Z,66.25
2023-04-22T22:35:44.251Z,65.66
2023-04-22T22:38:15.111Z,65.09
2023-04-22T22:40:45.437Z,64.85
2023-04-22T22:43:16.138Z,64.61
2023-04-22T22:45:46.949Z,64.57
2023-04-22T22:48:17.305Z,64.62
2023-04-22T22:50:48.889Z,64.36
2023-04-22T22:53:19.307Z,64.26
2023-04-22T22:55:49.853Z,64.88
2023-04-22T22:58:20.191Z,64.95
2023-04-22T23:00:51.285Z,65.70
2023-04-22T23:03:21.808Z,66.28
2023-04-22T23:05:52.297Z,66.66
2023-04-22T23:08:22.735Z,66.92
2023-04-22T23:10:53.392Z,67.36
2023-04-22T23:13:26.126Z,67.71
2023-04-22T23:15:56.636Z,68.09
2023-04-22T23:18:28.207Z,68.28
2023-04-22T23:21:01.098Z,68.58
2023-04-22T23:23:32.617Z,68.81
2023-04-22T23:26:03.477Z,69.12
2023-04-22T23:28:34.904Z,69.63
2023-04-22T23:31:07.756Z,69.88
2023-04-22T23:33:42.047Z,70.28
2023-04-22T23:36:16.897Z,70.54
2023-04-22T23:38:47.599Z,70.70
2023-04-22T23:41:17.909Z,70.94
2023-04-22T23:43:48.434Z,71.07
2023-04-22T23:46:19.028Z,71.13
2023-04-22T23:48:49.656Z,71.30
2023-04-22T23:51:20.531Z,71.50
2023-04-22T23:53:50.892Z,71.64
2023-04-22T23:56:22.903Z,71.80
2023-04-22T23:58:54.132Z,72.06
